Time;durP1;ratioP1;P1;durP2;ratioP2;P2;SDS_P1;SDS_P2;PMS_P1;PMS_P2;Temp;Humidity;BMP_temperature;BMP_pressure;BME280_temperature;BME280_humidity;BME280_pressure;Samples;Min_cycle;Max_cycle;Signal;HPM_P1;HPM_P2
2024/01/20 00:01:04;;;;;;;2.17;1.13;;;;;;;27.10;21.66;100230.47;7393443;19;20022;-80
2024/01/20 00:03:30;;;;;;;0.20;0.20;;;;;;;26.99;22.06;100231.69;7393123;19;20014;-80
2024/01/20 00:05:57;;;;;;;0.45;0.45;;;;;;;26.48;22.35;100232.13;7393322;19;20046;-80
2024/01/20 00:08:23;;;;;;;0.30;0.30;;;;;;;25.68;22.76;100236.09;7394558;19;20025;-80
2024/01/20 00:10:49;;;;;;;2.72;0.80;;;;;;;23.84;23.77;100241.00;7394776;19;20485;-80
2024/01/20 00:13:15;;;;;;;0.57;0.40;;;;;;;23.61;24.42;100233.59;7393596;19;20028;-81
2024/01/20 00:15:41;;;;;;;2.38;0.75;;;;;;;26.48;22.31;100219.94;7391846;19;20077;-81
2024/01/20 00:18:07;;;;;;;4.35;0.47;;;;;;;25.73;22.96;100220.91;7396691;19;20044;-81
2024/01/20 00:20:33;;;;;;;5.88;1.27;;;;;;;26.22;22.11;100213.38;7392170;19;20512;-81
2024/01/20 00:22:59;;;;;;;0.35;0.20;;;;;;;24.95;23.11;100217.78;7393158;19;20010;-81
2024/01/20 00:25:25;;;;;;;0.50;0.50;;;;;;;23.94;24.02;100222.09;7393510;19;20041;-81
2024/01/20 00:27:52;;;;;;;27.95;1.17;;;;;;;23.59;24.68;100219.94;7393801;19;20018;-81
2024/01/20 00:30:18;;;;;;;0.20;0.20;;;;;;;24.70;24.12;100220.38;7395808;19;20086;-81
2024/01/20 00:32:44;;;;;;;0.50;0.50;;;;;;;24.96;23.88;100215.69;7390692;19;20023;-81
2024/01/20 00:35:10;;;;;;;2.65;0.65;;;;;;;24.85;24.14;100211.13;7394717;19;20528;-81
2024/01/20 00:37:37;;;;;;;1.45;1.23;;;;;;;24.12;24.30;100220.31;7392827;19;20029;-81
2024/01/20 00:40:05;;;;;;;0.70;0.70;;;;;;;23.10;25.50;100227.66;7398076;19;20019;-81
2024/01/20 00:42:32;;;;;;;1.17;0.80;;;;;;;22.55;25.86;100221.94;7393727;19;20635;-81
2024/01/20 00:44:58;;;;;;;5.70;1.00;;;;;;;24.55;24.69;100214.63;7392401;19;20070;-81
2024/01/20 00:47:24;;;;;;;1.38;1.20;;;;;;;20.90;27.12;100225.75;7391820;19;20022;-81
2024/01/20 00:49:50;;;;;;;0.40;0.40;;;;;;;22.16;26.64;100224.84;7395787;19;20030;-81
2024/01/20 00:52:16;;;;;;;0.75;0.75;;;;;;;22.67;26.45;100222.47;7389278;19;20121;-81
2024/01/20 00:54:42;;;;;;;0.30;0.30;;;;;;;20.98;27.64;100218.97;7390621;19;20035;-81
2024/01/20 00:57:08;;;;;;;1.45;0.40;;;;;;;21.91;26.87;100220.72;7389630;19;20025;-81
2024/01/20 00:59:34;;;;;;;11.30;1.10;;;;;;;23.35;25.70;100217.47;7393058;19;20047;-82
2024/01/20 01:02:00;;;;;;;6.80;0.68;;;;;;;25.22;24.21;100215.34;7390918;19;20026;-81
2024/01/20 01:04:26;;;;;;;3.30;0.40;;;;;;;22.10;26.64;100218.50;7390412;19;20021;-81
2024/01/20 01:06:53;;;;;;;1.13;0.95;;;;;;;19.40;29.26;100213.50;7391453;19;20528;-81
2024/01/20 01:09:19;;;;;;;0.75;0.50;;;;;;;21.71;27.35;100205.06;7392403;19;20015;-81
2024/01/20 01:11:46;;;;;;;0.82;0.82;;;;;;;22.33;26.65;100205.38;7392613;19;20040;-81
2024/01/20 01:14:12;;;;;;;0.30;0.30;;;;;;;24.60;24.96;100212.94;7390820;19;20015;-81
2024/01/20 01:16:38;;;;;;;0.98;0.47;;;;;;;27.46;22.82;100213.66;7389935;19;20019;-81
2024/01/20 01:19:04;;;;;;;0.35;0.35;;;;;;;29.53;21.40;100219.28;7393313;19;20074;-81
2024/01/20 01:21:30;;;;;;;1.33;1.23;;;;;;;30.26;20.85;100213.31;7392583;19;20526;-81
2024/01/20 01:23:56;;;;;;;0.40;0.40;;;;;;;31.53;20.51;100202.44;7389132;19;20031;-81
2024/01/20 01:26:23;;;;;;;1.65;0.80;;;;;;;30.79;20.57;100213.00;7389531;19;20022;-81
2024/01/20 01:28:49;;;;;;;0.63;0.63;;;;;;;30.91;20.56;100216.75;7390394;19;20026;-81
2024/01/20 01:31:15;;;;;;;1.48;0.82;;;;;;;32.26;19.59;100206.03;7390567;19;20030;-81
2024/01/20 01:33:41;;;;;;;16.27;2.15;;;;;;;32.79;19.86;100208.09;7390670;19;20014;-81
2024/01/20 01:36:08;;;;;;;0.35;0.35;;;;;;;32.26;19.80;100208.16;7394686;19;20503;-81
2024/01/20 01:38:34;;;;;;;1.10;0.82;;;;;;;32.43;19.31;100202.84;7387723;19;20018;-80
2024/01/20 01:41:00;;;;;;;2.10;1.15;;;;;;;32.52;19.47;100199.16;7389327;19;20011;-81
2024/01/20 01:43:26;;;;;;;2.28;1.15;;;;;;;32.62;19.24;100194.03;7387810;19;20025;-81
2024/01/20 01:45:52;;;;;;;0.10;0.10;;;;;;;32.71;19.26;100196.06;7389949;19;20019;-81
2024/01/20 01:48:20;;;;;;;0.35;0.35;;;;;;;33.34;19.23;100197.16;7390118;19;20015;-82
2024/01/20 01:50:48;;;;;;;0.45;0.30;;;;;;;33.20;18.86;100184.72;7395716;19;20045;-81
2024/01/20 01:53:15;;;;;;;1.65;0.40;;;;;;;33.38;19.24;100180.81;7388457;19;20105;-81
2024/01/20 01:55:43;;;;;;;0.82;0.43;;;;;;;33.69;18.85;100185.56;7388404;19;20014;-81
2024/01/20 01:58:09;;;;;;;4.57;0.65;;;;;;;31.99;19.97;100188.34;7387336;19;20018;-81
2024/01/20 02:00:35;;;;;;;1.02;0.93;;;;;;;31.30;20.53;100183.59;7394578;19;20014;-81
2024/01/20 02:03:02;;;;;;;6.32;1.15;;;;;;;30.42;20.58;100185.81;7383789;19;20033;-81
2024/01/20 02:05:28;;;;;;;3.33;1.10;;;;;;;30.01;21.14;100193.53;7384699;19;20019;-81
2024/01/20 02:07:57;;;;;;;0.40;0.40;;;;;;;32.27;19.87;100192.38;7386078;19;20022;-81
2024/01/20 02:10:23;;;;;;;1.02;0.93;;;;;;;32.92;19.53;100181.53;7387729;19;20014;-81
2024/01/20 02:12:50;;;;;;;0.38;0.38;;;;;;;29.92;20.85;100197.91;7385209;19;20078;-82
2024/01/20 02:15:16;;;;;;;0.73;0.40;;;;;;;29.40;21.41;100188.13;7386437;19;20023;-81
2024/01/20 02:17:53;;;;;;;0.82;0.60;;;;;;;31.39;20.36;100194.31;7386487;19;20667;-81
2024/01/20 02:20:20;;;;;;;5.28;0.50;;;;;;;31.35;20.24;100176.75;7389389;19;20014;-81
2024/01/20 02:22:46;;;;;;;1.55;0.90;;;;;;;30.79;20.64;100201.50;7387802;19;20488;-81
2024/01/20 02:25:12;;;;;;;2.00;0.52;;;;;;;30.34;20.87;100182.38;7390783;19;20015;-82
2024/01/20 02:27:38;;;;;;;0.60;0.60;;;;;;;30.55;20.77;100182.47;7387965;19;20368;-81
2024/01/20 02:30:05;;;;;;;0.13;0.13;;;;;;;30.98;20.29;100184.19;7390741;19;20025;-81
2024/01/20 02:32:31;;;;;;;1.92;0.80;;;;;;;31.45;20.12;100173.84;7387815;19;20094;-81
2024/01/20 02:34:57;;;;;;;1.77;0.57;;;;;;;30.67;20.67;100171.84;7389441;19;20011;-81
2024/01/20 02:37:23;;;;;;;4.18;1.50;;;;;;;30.87;20.45;100172.56;7387042;19;20019;-81
2024/01/20 02:39:52;;;;;;;0.80;0.80;;;;;;;31.75;20.18;100172.31;7385727;19;20471;-81
2024/01/20 02:42:18;;;;;;;0.57;0.57;;;;;;;32.19;20.12;100158.00;7387266;19;20539;-81
2024/01/20 02:44:45;;;;;;;0.40;0.30;;;;;;;31.73;20.37;100161.38;7390093;19;20420;-81
2024/01/20 02:47:11;;;;;;;0.73;0.70;;;;;;;33.70;18.86;100158.94;7389202;19;20019;-81
2024/01/20 02:49:37;;;;;;;0.25;0.25;;;;;;;32.82;19.57;100169.34;7388402;19;20376;-81
2024/01/20 02:52:03;;;;;;;0.55;0.55;;;;;;;31.65;20.23;100157.19;7389838;19;20014;-81
2024/01/20 02:54:29;;;;;;;1.65;0.57;;;;;;;31.96;19.97;100164.44;7387698;19;20011;-81
2024/01/20 02:56:55;;;;;;;0.32;0.32;;;;;;;35.39;18.36;100151.22;7385202;19;20363;-81
2024/01/20 02:59:21;;;;;;;3.05;0.70;;;;;;;36.29;17.80;100148.59;7389063;19;20070;-81
2024/01/20 03:01:48;;;;;;;0.95;0.82;;;;;;;36.43;17.82;100152.22;7386707;19;20055;-81
2024/01/20 03:04:14;;;;;;;2.30;2.10;;;;;;;36.58;17.64;100139.88;7385427;19;20006;-81
2024/01/20 03:06:40;;;;;;;0.73;0.73;;;;;;;36.89;17.59;100137.03;7387109;19;20338;-82
2024/01/20 03:09:07;;;;;;;0.77;0.77;;;;;;;36.80;17.18;100140.94;7388029;19;20019;-81
2024/01/20 03:11:36;;;;;;;1.05;0.60;;;;;;;36.01;17.35;100135.59;7395352;19;20011;-81
2024/01/20 03:14:02;;;;;;;1.48;0.45;;;;;;;33.54;18.43;100146.44;7396530;19;20025;-82
2024/01/20 03:16:28;;;;;;;1.33;1.23;;;;;;;32.96;19.32;100140.66;7394211;19;20018;-82
2024/01/20 03:18:54;;;;;;;1.10;0.50;;;;;;;33.32;18.84;100145.81;7395821;19;20448;-82
2024/01/20 03:21:20;;;;;;;1.45;0.50;;;;;;;33.23;18.44;100140.16;7394277;19;20544;-82
2024/01/20 03:23:46;;;;;;;1.33;0.73;;;;;;;33.59;18.36;100145.28;7396129;19;20037;-82
2024/01/20 03:26:13;;;;;;;0.47;0.22;;;;;;;33.33;18.75;100143.69;7393660;19;20018;-82
2024/01/20 03:28:40;;;;;;;0.22;0.22;;;;;;;32.74;18.88;100131.34;7396031;19;20015;-83
2024/01/20 03:31:06;;;;;;;0.38;0.38;;;;;;;32.35;19.29;100124.47;7394138;19;20026;-82
2024/01/20 03:33:32;;;;;;;0.30;0.30;;;;;;;31.97;19.72;100125.56;7392056;19;20019;-81
2024/01/20 03:35:59;;;;;;;0.25;0.25;;;;;;;31.38;19.51;100120.81;7397577;19;20544;-82
2024/01/20 03:38:25;;;;;;;0.20;0.20;;;;;;;31.27;19.83;100130.13;7391697;19;20022;-81
2024/01/20 03:40:51;;;;;;;2.03;1.00;;;;;;;31.38;19.68;100129.44;7394416;19;20018;-82
2024/01/20 03:43:17;;;;;;;0.95;0.60;;;;;;;31.86;19.31;100131.28;7392866;19;20022;-81
2024/01/20 03:45:43;;;;;;;2.40;0.80;;;;;;;31.05;19.97;100131.47;7394317;19;20015;-82
2024/01/20 03:48:09;;;;;;;5.57;0.90;;;;;;;31.17;19.80;100129.44;7395286;19;20030;-82
2024/01/20 03:50:36;;;;;;;1.70;1.55;;;;;;;30.20;20.10;100136.06;7395408;19;21108;-82
2024/01/20 03:53:02;;;;;;;0.20;0.20;;;;;;;30.16;20.42;100135.75;7393636;19;20483;-81
2024/01/20 03:55:28;;;;;;;1.90;0.43;;;;;;;30.08;20.39;100131.53;7394695;19;20011;-82
2024/01/20 03:57:54;;;;;;;0.30;0.30;;;;;;;30.21;20.15;100133.94;7390061;19;20049;-81
2024/01/20 04:00:20;;;;;;;1.27;0.80;;;;;;;31.11;19.64;100128.25;7397759;19;20014;-81
2024/01/20 04:02:47;;;;;;;1.20;0.88;;;;;;;31.75;19.35;100134.84;7391417;19;20116;-81
2024/01/20 04:05:13;;;;;;;0.25;0.25;;;;;;;30.89;20.20;100127.44;7398025;19;20039;-82
2024/01/20 04:07:39;;;;;;;0.38;0.38;;;;;;;30.84;20.04;100127.75;7393784;19;20054;-82
2024/01/20 04:10:06;;;;;;;0.30;0.22;;;;;;;30.57;20.05;100116.50;7393865;19;20542;-82
2024/01/20 04:12:32;;;;;;;0.77;0.50;;;;;;;30.77;20.10;100109.31;7394425;19;20010;-82
2024/01/20 04:14:58;;;;;;;1.30;0.90;;;;;;;30.81;20.30;100106.72;7397251;19;20349;-83
2024/01/20 04:17:24;;;;;;;1.55;0.25;;;;;;;30.69;20.16;100115.22;7392526;19;20476;-82
2024/01/20 04:19:50;;;;;;;0.15;0.15;;;;;;;30.72;20.10;100113.25;7391504;19;20018;-82
2024/01/20 04:22:16;;;;;;;0.30;0.30;;;;;;;30.74;20.29;100113.41;7391383;19;20385;-82
2024/01/20 04:24:42;;;;;;;0.30;0.30;;;;;;;31.42;19.87;100100.22;7397251;19;20026;-82
2024/01/20 04:27:08;;;;;;;0.30;0.30;;;;;;;31.64;19.67;100104.59;7393912;19;20034;-82
2024/01/20 04:29:34;;;;;;;1.92;0.17;;;;;;;30.76;20.35;100102.03;7394247;19;20007;-82
2024/01/20 04:32:01;;;;;;;0.30;0.30;;;;;;;33.27;18.77;100102.84;7394178;19;20018;-82
2024/01/20 04:34:27;;;;;;;0.50;0.50;;;;;;;33.72;18.43;100098.41;7392843;19;20499;-82
2024/01/20 04:36:53;;;;;;;0.40;0.40;;;;;;;33.99;18.57;100103.56;7396416;19;20022;-82
2024/01/20 04:39:19;;;;;;;1.20;0.60;;;;;;;34.06;18.18;100103.31;7393357;19;20353;-82
2024/01/20 04:41:45;;;;;;;0.82;0.82;;;;;;;33.93;18.20;100098.19;7392711;19;20337;-81
2024/01/20 04:44:12;;;;;;;0.20;0.20;;;;;;;34.08;18.43;100088.97;7390411;19;20029;-81
2024/01/20 04:46:38;;;;;;;0.30;0.30;;;;;;;34.11;18.25;100090.56;7389959;19;20015;-82
2024/01/20 04:49:04;;;;;;;1.00;0.30;;;;;;;31.62;19.52;100089.31;7391292;19;20074;-82
2024/01/20 04:51:30;;;;;;;0.10;0.10;;;;;;;30.60;19.99;100090.13;7392225;19;20018;-82
2024/01/20 04:53:56;;;;;;;0.20;0.20;;;;;;;30.28;20.17;100089.91;7392858;19;20014;-82
2024/01/20 04:56:22;;;;;;;9.20;0.68;;;;;;;30.40;19.83;100082.19;7393157;19;20027;-82
2024/01/20 04:58:50;;;;;;;0.77;0.47;;;;;;;29.04;21.03;100094.19;7391138;19;20045;-82
2024/01/20 05:01:16;;;;;;;1.75;0.95;;;;;;;27.67;21.73;100102.41;7390737;19;20383;-81
2024/01/20 05:03:42;;;;;;;1.77;0.68;;;;;;;28.53;21.03;100098.06;7390770;19;20049;-82
2024/01/20 05:06:08;;;;;;;0.77;0.25;;;;;;;27.98;21.73;100089.25;7393793;19;20018;-82
2024/01/20 05:08:35;;;;;;;0.32;0.32;;;;;;;26.40;22.65;100102.84;7391124;19;20022;-82
2024/01/20 05:11:01;;;;;;;0.30;0.30;;;;;;;26.04;22.89;100105.31;7390268;19;20053;-82
2024/01/20 05:13:27;;;;;;;0.22;0.22;;;;;;;25.64;23.55;100104.50;7391334;19;20022;-82
2024/01/20 05:15:54;;;;;;;0.28;0.28;;;;;;;24.54;24.61;100089.88;7390292;19;20496;-82
2024/01/20 05:18:20;;;;;;;0.15;0.15;;;;;;;24.84;24.29;100095.63;7388616;19;20017;-82
2024/01/20 05:20:46;;;;;;;0.10;0.10;;;;;;;23.25;25.61;100097.06;7390557;19;20014;-82
2024/01/20 05:23:12;;;;;;;0.40;0.40;;;;;;;21.82;26.91;100099.19;7388050;19;20010;-82
2024/01/20 05:25:38;;;;;;;1.10;0.63;;;;;;;22.00;26.78;100106.81;7390652;19;20025;-82
2024/01/20 05:28:05;;;;;;;1.00;0.82;;;;;;;22.36;27.25;100107.78;7392435;19;20031;-82
2024/01/20 05:30:31;;;;;;;0.20;0.20;;;;;;;25.51;24.36;100094.09;7393816;19;20019;-82
2024/01/20 05:32:57;;;;;;;0.13;0.13;;;;;;;22.27;26.18;100099.75;7389697;19;20015;-82
2024/01/20 05:35:23;;;;;;;0.30;0.20;;;;;;;23.21;26.66;100102.34;7393706;19;20018;-82
2024/01/20 05:37:49;;;;;;;0.17;0.17;;;;;;;23.37;26.33;100101.13;7388265;19;20015;-82
2024/01/20 05:40:15;;;;;;;0.20;0.20;;;;;;;25.61;24.77;100097.84;7394686;19;20349;-82
2024/01/20 05:42:41;;;;;;;5.38;0.85;;;;;;;23.60;26.25;100095.59;7389644;19;20350;-82
2024/01/20 05:45:09;;;;;;;0.25;0.25;;;;;;;23.92;26.16;100099.56;7391930;19;20025;-82
2024/01/20 05:47:38;;;;;;;0.22;0.22;;;;;;;24.37;25.97;100095.34;7389150;19;20025;-82
2024/01/20 05:50:05;;;;;;;0.22;0.22;;;;;;;25.35;24.93;100092.56;7395000;19;20045;-82
2024/01/20 05:52:31;;;;;;;0.55;0.55;;;;;;;27.85;23.37;100086.75;7390264;19;20018;-82
2024/01/20 05:54:57;;;;;;;0.28;0.25;;;;;;;24.19;25.69;100093.59;7389768;19;20042;-82
2024/01/20 05:57:23;;;;;;;0.20;0.20;;;;;;;22.95;26.32;100083.41;7387973;19;20010;-82
2024/01/20 05:59:50;;;;;;;0.40;0.40;;;;;;;20.57;29.00;100085.56;7393227;19;20041;-81
2024/01/20 06:02:17;;;;;;;0.22;0.22;;;;;;;21.22;28.37;100087.00;7390134;19;20021;-81
2024/01/20 06:04:43;;;;;;;0.20;0.20;;;;;;;21.50;28.32;100079.50;7388947;19;20037;-81
2024/01/20 06:07:09;;;;;;;0.38;0.38;;;;;;;23.30;26.38;100079.09;7389656;19;20026;-81
2024/01/20 06:09:35;;;;;;;0.25;0.22;;;;;;;25.88;24.55;100078.19;7391899;19;20021;-82
2024/01/20 06:12:01;;;;;;;0.10;0.10;;;;;;;22.77;27.15;100083.59;7388583;19;20014;-82
2024/01/20 06:14:27;;;;;;;0.40;0.40;;;;;;;22.18;27.71;100091.69;7389032;19;20041;-82
2024/01/20 06:16:53;;;;;;;0.22;0.22;;;;;;;21.92;28.01;100091.75;7387812;19;20491;-82
2024/01/20 06:19:20;;;;;;;0.20;0.20;;;;;;;19.51;30.26;100100.34;7394093;19;20014;-83
2024/01/20 06:21:46;;;;;;;0.13;0.13;;;;;;;20.59;29.20;100082.16;7390932;19;20472;-81
2024/01/20 06:24:12;;;;;;;0.38;0.20;;;;;;;17.76;32.39;100104.81;7388764;19;20086;-81
2024/01/20 06:26:38;;;;;;;0.17;0.17;;;;;;;16.96;33.69;100106.03;7391051;19;20014;-82
2024/01/20 06:29:04;;;;;;;0.10;0.10;;;;;;;17.71;33.14;100102.78;7390699;19;20023;-82
2024/01/20 06:31:30;;;;;;;0.43;0.43;;;;;;;17.78;33.37;100101.50;7386782;19;20480;-82
2024/01/20 06:33:56;;;;;;;0.77;0.40;;;;;;;19.72;30.87;100097.81;7385883;19;20015;-81
2024/01/20 06:36:25;;;;;;;0.15;0.15;;;;;;;20.51;30.18;100084.13;7391953;19;20017;-82
2024/01/20 06:38:51;;;;;;;0.68;0.38;;;;;;;19.16;31.47;100085.59;7390466;19;20026;-81
2024/01/20 06:41:17;;;;;;;0.38;0.38;;;;;;;20.05;30.52;100068.31;7389452;19;20086;-82
2024/01/20 06:43:43;;;;;;;0.20;0.20;;;;;;;20.06;30.61;100076.25;7390429;19;20031;-82
2024/01/20 06:46:10;;;;;;;1.13;0.40;;;;;;;20.19;30.55;100075.56;7398042;19;20037;-82
2024/01/20 06:48:36;;;;;;;0.30;0.30;;;;;;;19.65;30.88;100076.56;7398577;19;20022;-82
2024/01/20 06:51:03;;;;;;;0.15;0.15;;;;;;;18.91;31.99;100079.16;7398040;19;20010;-82
2024/01/20 06:53:31;;;;;;;0.30;0.17;;;;;;;20.48;30.38;100071.81;7395240;19;20026;-82
2024/01/20 06:55:58;;;;;;;0.38;0.38;;;;;;;19.84;30.89;100073.00;7394840;19;20405;-82
2024/01/20 06:58:24;;;;;;;0.10;0.10;;;;;;;20.88;29.73;100070.59;7393773;19;20022;-83
2024/01/20 07:00:50;;;;;;;0.20;0.20;;;;;;;22.00;28.81;100069.94;7401288;19;20093;-82
2024/01/20 07:03:17;;;;;;;0.10;0.10;;;;;;;20.67;29.87;100066.84;7393843;19;20014;-82
2024/01/20 07:05:43;;;;;;;0.43;0.30;;;;;;;21.37;29.63;100075.91;7397674;19;20030;-82
2024/01/20 07:08:09;;;;;;;0.30;0.30;;;;;;;24.17;26.82;100068.53;7395373;19;20039;-81
2024/01/20 07:10:35;;;;;;;0.30;0.30;;;;;;;22.88;27.85;100077.63;7395779;19;20481;-82
2024/01/20 07:13:01;;;;;;;5.88;0.40;;;;;;;22.29;28.08;100067.97;7395024;19;20025;-82
2024/01/20 07:15:28;;;;;;;0.10;0.10;;;;;;;20.46;30.35;100070.81;7396569;19;20007;-82
2024/01/20 07:17:56;;;;;;;0.15;0.15;;;;;;;19.62;31.38;100076.88;7392401;19;20019;-82
2024/01/20 07:20:22;;;;;;;0.45;0.35;;;;;;;18.31;32.48;100086.03;7393424;19;21202;-82
2024/01/20 07:22:49;;;;;;;0.30;0.30;;;;;;;18.91;31.85;100079.16;7394862;19;20010;-82
2024/01/20 07:25:17;;;;;;;1.80;1.38;;;;;;;19.34;31.87;100082.84;7395778;19;20204;-82
2024/01/20 07:27:44;;;;;;;1.35;0.77;;;;;;;17.88;33.09;100083.75;7396442;19;20032;-82
2024/01/20 07:30:10;;;;;;;5.78;0.77;;;;;;;19.08;32.48;100073.38;7399718;19;20018;-82
2024/01/20 07:32:40;;;;;;;7.03;0.85;;;;;;;19.93;31.42;100061.28;7395033;19;20023;-81
2024/01/20 07:35:07;;;;;;;0.17;0.17;;;;;;;19.54;31.30;100062.56;7395896;19;20022;-82
2024/01/20 07:37:36;;;;;;;3.80;0.50;;;;;;;19.10;32.10;100079.25;7391705;19;20396;-82
2024/01/20 07:40:04;;;;;;;0.43;0.43;;;;;;;19.02;32.13;100081.88;7399164;19;20021;-82
2024/01/20 07:42:32;;;;;;;2.92;1.33;;;;;;;19.14;32.01;100077.66;7396808;19;20015;-82
2024/01/20 07:44:59;;;;;;;1.63;0.35;;;;;;;20.10;30.93;100073.13;7396676;19;20051;-81
2024/01/20 07:47:25;;;;;;;1.00;0.82;;;;;;;20.85;30.60;100071.69;7398394;19;20021;-81
2024/01/20 07:49:51;;;;;;;0.50;0.22;;;;;;;22.02;29.54;100061.66;7397994;19;20025;-82
2024/01/20 07:52:18;;;;;;;0.70;0.63;;;;;;;20.54;31.02;100071.69;7399067;19;20022;-82
2024/01/20 07:54:44;;;;;;;3.20;0.85;;;;;;;21.25;30.02;100066.06;7396879;19;20354;-81
2024/01/20 07:57:10;;;;;;;0.30;0.30;;;;;;;20.12;31.10;100070.53;7395685;19;20010;-82
2024/01/20 07:59:36;;;;;;;0.35;0.35;;;;;;;18.77;32.61;100077.50;7398321;19;20022;-82
2024/01/20 08:02:03;;;;;;;11.88;0.55;;;;;;;17.72;34.15;100076.16;7396305;19;20469;-82
2024/01/20 08:04:29;;;;;;;0.17;0.17;;;;;;;15.25;37.49;100069.88;7393999;19;20018;-82
2024/01/20 08:06:55;;;;;;;0.20;0.20;;;;;;;18.64;33.06;100063.25;7396493;19;20093;-82
2024/01/20 08:09:21;;;;;;;0.75;0.60;;;;;;;17.00;35.21;100067.16;7395312;19;20014;-82
2024/01/20 08:11:47;;;;;;;0.68;0.50;;;;;;;16.44;35.96;100077.63;7396110;19;20074;-81
2024/01/20 08:14:13;;;;;;;0.20;0.20;;;;;;;15.31;37.02;100084.72;7391918;19;20380;-82
2024/01/20 08:16:40;;;;;;;0.20;0.20;;;;;;;14.60;39.15;100089.34;7393577;19;20019;-82
2024/01/20 08:19:06;;;;;;;1.17;0.77;;;;;;;15.22;38.25;100087.72;7395230;19;20030;-82
2024/01/20 08:21:33;;;;;;;0.30;0.20;;;;;;;15.26;38.43;100088.25;7393139;19;20022;-82
2024/01/20 08:23:59;;;;;;;0.38;0.35;;;;;;;14.40;39.72;100095.03;7391212;19;20019;-82
2024/01/20 08:26:26;;;;;;;0.30;0.30;;;;;;;15.61;38.05;100097.13;7392697;19;20672;-82
2024/01/20 08:28:52;;;;;;;0.35;0.35;;;;;;;14.42;40.04;100101.66;7393842;19;20015;-82
2024/01/20 08:31:18;;;;;;;3.45;0.40;;;;;;;16.04;38.04;100090.13;7394139;19;20018;-83
2024/01/20 08:33:44;;;;;;;0.10;0.10;;;;;;;15.33;39.13;100087.78;7390324;19;20014;-83
2024/01/20 08:36:10;;;;;;;0.52;0.40;;;;;;;15.46;39.37;100093.75;7396972;19;20019;-83
2024/01/20 08:38:36;;;;;;;0.20;0.20;;;;;;;15.52;39.23;100102.97;7389423;19;20015;-82
2024/01/20 08:41:11;;;;;;;0.20;0.20;;;;;;;18.33;35.89;100087.06;7396132;19;20010;-82
2024/01/20 08:43:42;;;;;;;0.38;0.28;;;;;;;25.06;28.36;100074.91;7392057;19;20463;-85
2024/01/20 08:46:08;;;;;;;3.15;0.22;;;;;;;26.76;26.74;100071.78;7392532;19;20019;-85
2024/01/20 08:48:34;;;;;;;0.30;0.30;;;;;;;27.27;25.95;100078.94;7395795;19;20326;-84
2024/01/20 08:51:01;;;;;;;3.92;0.30;;;;;;;27.72;25.90;100072.78;7394863;19;20740;-83
2024/01/20 08:53:27;;;;;;;0.40;0.40;;;;;;;27.98;25.54;100077.81;7391364;19;20014;-84
2024/01/20 08:55:53;;;;;;;3.80;1.27;;;;;;;28.25;25.13;100072.88;7390982;19;20019;-84
2024/01/20 08:58:19;;;;;;;10.43;0.93;;;;;;;28.99;24.78;100077.28;7389531;19;20097;-83
2024/01/20 09:00:46;;;;;;;1.23;1.00;;;;;;;28.48;24.50;100066.78;7395631;19;20014;-83
2024/01/20 09:03:12;;;;;;;0.20;0.20;;;;;;;28.31;25.18;100070.47;7391323;19;20011;-83
2024/01/20 09:05:38;;;;;;;0.52;0.20;;;;;;;28.27;24.81;100069.41;7390188;19;20090;-83
2024/01/20 09:08:05;;;;;;;11.05;0.98;;;;;;;27.30;25.56;100074.91;7389775;19;20042;-83
2024/01/20 09:10:31;;;;;;;2.33;1.15;;;;;;;26.97;25.86;100069.31;7393072;19;20026;-83
2024/01/20 09:12:57;;;;;;;5.82;1.15;;;;;;;27.43;25.52;100063.19;7389426;19;20029;-83
2024/01/20 09:15:23;;;;;;;0.50;0.50;;;;;;;27.05;25.65;100069.22;7389682;19;20508;-83
2024/01/20 09:17:49;;;;;;;0.10;0.10;;;;;;;26.66;26.03;100070.88;7389318;19;20346;-82
2024/01/20 09:20:15;;;;;;;0.20;0.20;;;;;;;25.24;27.02;100068.06;7390972;19;20011;-82
2024/01/20 09:22:41;;;;;;;0.40;0.40;;;;;;;25.78;26.71;100071.53;7391504;19;20019;-82
2024/01/20 09:25:07;;;;;;;0.20;0.20;;;;;;;26.66;26.16;100070.13;7389113;19;20014;-82
2024/01/20 09:27:33;;;;;;;0.10;0.10;;;;;;;25.54;27.05;100062.31;7390610;19;20492;-82
2024/01/20 09:30:00;;;;;;;0.30;0.30;;;;;;;20.58;31.18;100075.75;7389484;19;20017;-82
2024/01/20 09:32:30;;;;;;;0.10;0.10;;;;;;;19.38;33.24;100082.56;7388160;19;21167;-82
2024/01/20 09:34:57;;;;;;;7.88;0.60;;;;;;;21.39;32.01;100076.88;7390278;19;20026;-81
2024/01/20 09:37:23;;;;;;;1.10;0.85;;;;;;;22.84;29.65;100071.56;7390931;19;20017;-82
2024/01/20 09:39:49;;;;;;;7.43;0.50;;;;;;;18.79;34.19;100074.91;7391260;19;20040;-82
2024/01/20 09:42:16;;;;;;;0.10;0.10;;;;;;;19.61;33.52;100070.44;7391432;19;20058;-82
2024/01/20 09:44:43;;;;;;;0.10;0.10;;;;;;;21.52;31.70;100067.59;7390132;19;20021;-82
2024/01/20 09:47:11;;;;;;;3.60;0.85;;;;;;;21.08;31.54;100061.50;7389105;19;20014;-82
2024/01/20 09:49:38;;;;;;;0.10;0.10;;;;;;;20.55;32.43;100059.09;7389993;19;20015;-82
2024/01/20 09:52:09;;;;;;;0.10;0.10;;;;;;;18.94;34.21;100069.63;7389370;19;20546;-82
2024/01/20 09:54:46;;;;;;;0.20;0.20;;;;;;;20.00;33.01;100060.69;7392217;19;20027;-82
2024/01/20 09:57:12;;;;;;;0.10;0.10;;;;;;;19.90;33.87;100057.50;7389110;19;20010;-82
2024/01/20 09:59:41;;;;;;;0.35;0.35;;;;;;;18.12;35.54;100064.16;7391929;19;20025;-82
2024/01/20 10:02:10;;;;;;;2.50;1.63;;;;;;;18.60;35.13;100065.59;7389324;19;20114;-82
2024/01/20 10:04:39;;;;;;;0.20;0.20;;;;;;;18.41;35.22;100067.53;7391193;19;20037;-81
2024/01/20 10:07:05;;;;;;;0.32;0.32;;;;;;;18.44;35.12;100074.94;7389288;19;20479;-82
2024/01/20 10:09:31;;;;;;;1.23;0.22;;;;;;;17.64;36.09;100086.44;7391238;19;20018;-83
2024/01/20 10:11:59;;;;;;;0.10;0.10;;;;;;;21.30;32.30;100068.03;7390249;19;20025;-85
2024/01/20 10:14:25;;;;;;;13.65;0.60;;;;;;;21.20;32.06;100073.41;7392355;19;20021;-82
2024/01/20 10:16:51;;;;;;;0.10;0.10;;;;;;;22.04;31.31;100076.03;7388826;19;20037;-88
2024/01/20 10:19:17;;;;;;;4.35;0.40;;;;;;;20.14;33.24;100076.41;7390911;19;20089;-83
2024/01/20 10:21:43;;;;;;;0.10;0.10;;;;;;;23.50;29.73;100069.75;7389453;19;20024;-84
2024/01/20 10:24:10;;;;;;;0.10;0.10;;;;;;;19.79;33.46;100073.81;7392120;19;20018;-83
2024/01/20 10:26:43;;;;;;;0.20;0.20;;;;;;;19.78;33.48;100078.72;7388765;19;20023;-83
2024/01/20 10:29:12;;;;;;;2.25;0.75;;;;;;;18.72;35.20;100081.13;7389433;19;20015;-83
2024/01/20 10:31:38;;;;;;;1.27;0.30;;;;;;;18.65;34.72;100081.69;7389424;19;20086;-84
2024/01/20 10:34:04;;;;;;;0.40;0.38;;;;;;;19.70;33.80;100071.38;7389940;19;20365;-84
2024/01/20 10:36:31;;;;;;;0.47;0.30;;;;;;;19.55;34.10;100066.16;7393573;19;20503;-83
2024/01/20 10:39:02;;;;;;;0.43;0.43;;;;;;;18.40;35.47;100071.63;7390836;19;20040;-84
2024/01/20 10:41:28;;;;;;;3.40;0.65;;;;;;;20.25;33.44;100057.22;7390271;19;20483;-84
2024/01/20 10:44:01;;;;;;;0.32;0.30;;;;;;;22.49;31.55;100056.66;7390724;19;20025;-84
2024/01/20 10:46:31;;;;;;;3.03;0.73;;;;;;;21.16;31.82;100058.75;7390615;19;20074;-83
2024/01/20 10:49:00;;;;;;;2.58;0.57;;;;;;;19.20;34.12;100063.47;7388471;19;20022;-83
2024/01/20 10:51:27;;;;;;;2.25;0.52;;;;;;;18.91;34.60;100065.81;7390223;19;20011;-84
2024/01/20 10:53:56;;;;;;;0.13;0.13;;;;;;;18.86;34.74;100057.41;7387785;19;20025;-83
2024/01/20 10:56:24;;;;;;;0.28;0.28;;;;;;;19.53;34.25;100051.81;7387893;19;20014;-83
2024/01/20 10:59:01;;;;;;;0.45;0.30;;;;;;;18.27;35.50;100051.72;7389112;19;20081;-84
2024/01/20 11:04:20;;;;;;;6.32;0.70;;;;;;;21.56;32.07;100051.78;7379495;19;20015;-85
2024/01/20 11:06:47;;;;;;;2.00;0.65;;;;;;;19.50;34.25;100050.81;7387451;19;20510;-83
2024/01/20 11:09:23;;;;;;;0.15;0.15;;;;;;;19.63;34.13;100045.25;7382413;19;20018;-84
2024/01/20 11:12:01;;;;;;;0.32;0.32;;;;;;;20.34;33.62;100050.41;7390789;19;20029;-83
2024/01/20 11:14:31;;;;;;;0.40;0.40;;;;;;;22.36;31.58;100034.00;7384580;19;20379;-83
2024/01/20 11:17:07;;;;;;;0.40;0.40;;;;;;;22.81;30.62;100044.25;7391343;19;20014;-81
2024/01/20 11:19:34;;;;;;;0.63;0.47;;;;;;;20.97;32.33;100043.91;7388851;19;20087;-86
2024/01/20 11:22:01;;;;;;;0.20;0.20;;;;;;;20.26;33.42;100038.97;7388222;19;20033;-86
2024/01/20 11:24:41;;;;;;;2.25;0.38;;;;;;;19.78;33.81;100052.50;7387181;19;20014;-87